Time;durP1;ratioP1;P1;durP2;ratioP2;P2;SDS_P1;SDS_P2;PMS_P1;PMS_P2;Temp;Humidity;BMP_temperature;BMP_pressure;BME280_temperature;BME280_humidity;BME280_pressure;Samples;Min_cycle;Max_cycle;Signal;HPM_P1;HPM_P2
2021/03/11 00:00:48;;;;;;;;;;;18.30;39.10;;;;;;500358;237;1079;-46
2021/03/11 00:02:50;;;;;;;;;;;18.20;39.10;;;;;;500489;237;2120;-46
2021/03/11 00:04:51;;;;;;;;;;;18.20;39.10;;;;;;500820;237;1172;-46
2021/03/11 00:06:52;;;;;;;;;;;18.20;39.10;;;;;;500364;237;1163;-46
2021/03/11 00:08:53;;;;;;;;;;;18.20;39.10;;;;;;500786;237;1020;-46
2021/03/11 00:10:55;;;;;;;;;;;18.20;39.20;;;;;;500403;237;1171;-46
2021/03/11 00:12:56;;;;;;;;;;;18.10;39.10;;;;;;500478;237;1093;-46
2021/03/11 00:14:57;;;;;;;;;;;18.10;39.20;;;;;;500355;237;1075;-46
2021/03/11 00:16:59;;;;;;;;;;;18.10;39.20;;;;;;500268;237;1138;-46
2021/03/11 00:19:00;;;;;;;;;;;18.10;39.20;;;;;;500747;237;1059;-46
2021/03/11 00:21:01;;;;;;;;;;;18.10;39.30;;;;;;500487;237;1231;-45
2021/03/11 00:23:02;;;;;;;;;;;18.10;39.20;;;;;;500487;237;2179;-46
2021/03/11 00:25:04;;;;;;;;;;;18.10;39.20;;;;;;500480;237;1070;-46
2021/03/11 00:27:05;;;;;;;;;;;18.10;39.20;;;;;;500713;237;1097;-46
2021/03/11 00:29:06;;;;;;;;;;;18.10;39.30;;;;;;500477;237;1070;-46
2021/03/11 00:31:08;;;;;;;;;;;18.00;39.20;;;;;;500503;237;1108;-46
2021/03/11 00:33:09;;;;;;;;;;;18.00;39.30;;;;;;500415;237;1001;-46
2021/03/11 00:35:10;;;;;;;;;;;18.00;39.30;;;;;;500718;237;1156;-46
2021/03/11 00:37:11;;;;;;;;;;;18.00;39.30;;;;;;500596;237;1071;-45
2021/03/11 00:39:13;;;;;;;;;;;17.90;39.30;;;;;;500341;237;1083;-46
2021/03/11 00:41:14;;;;;;;;;;;18.00;39.30;;;;;;500330;237;1089;-46
2021/03/11 00:43:15;;;;;;;;;;;18.00;39.30;;;;;;500382;237;2160;-46
2021/03/11 00:45:17;;;;;;;;;;;18.00;39.30;;;;;;500575;237;1062;-46
2021/03/11 00:47:18;;;;;;;;;;;18.00;39.30;;;;;;500415;237;1088;-46
2021/03/11 00:49:19;;;;;;;;;;;17.90;39.30;;;;;;500508;237;1052;-46
2021/03/11 00:51:20;;;;;;;;;;;17.90;39.30;;;;;;500407;237;1201;-46
2021/03/11 00:53:22;;;;;;;;;;;17.90;39.40;;;;;;500387;237;1047;-46
2021/03/11 00:55:23;;;;;;;;;;;17.90;39.30;;;;;;500526;237;1211;-46
2021/03/11 00:57:24;;;;;;;;;;;17.90;39.30;;;;;;500097;237;1085;-46
2021/03/11 00:59:25;;;;;;;;;;;17.90;39.40;;;;;;500390;237;1120;-46
2021/03/11 01:01:27;;;;;;;;;;;17.90;39.20;;;;;;500401;237;1240;-46
2021/03/11 01:03:28;;;;;;;;;;;18.30;38.60;;;;;;500424;237;2196;-46
2021/03/11 01:05:29;;;;;;;;;;;18.70;37.70;;;;;;500558;237;1197;-46
2021/03/11 01:07:31;;;;;;;;;;;19.10;37.00;;;;;;500389;237;1117;-46
2021/03/11 01:09:32;;;;;;;;;;;19.30;36.50;;;;;;500654;237;1082;-46
2021/03/11 01:11:33;;;;;;;;;;;19.50;36.10;;;;;;500438;237;1043;-46
2021/03/11 01:13:34;;;;;;;;;;;19.70;35.80;;;;;;500383;237;1050;-46
2021/03/11 01:15:36;;;;;;;;;;;19.70;35.60;;;;;;500507;237;1035;-46
2021/03/11 01:17:37;;;;;;;;;;;19.80;35.50;;;;;;500503;237;1238;-47
2021/03/11 01:19:39;;;;;;;;;;;19.90;35.40;;;;;;500388;237;1066;-47
2021/03/11 01:21:40;;;;;;;;;;;19.90;35.30;;;;;;500456;237;1195;-46
2021/03/11 01:23:41;;;;;;;;;;;20.00;35.20;;;;;;500310;237;2172;-46
2021/03/11 01:25:42;;;;;;;;;;;20.10;35.10;;;;;;500580;237;1034;-46
2021/03/11 01:27:44;;;;;;;;;;;20.10;35.00;;;;;;500833;237;1053;-46
2021/03/11 01:29:45;;;;;;;;;;;20.10;34.80;;;;;;500901;237;1126;-46
2021/03/11 01:31:46;;;;;;;;;;;20.20;34.90;;;;;;500302;237;1195;-47
2021/03/11 01:33:48;;;;;;;;;;;20.20;34.80;;;;;;500511;237;1104;-46
2021/03/11 01:35:49;;;;;;;;;;;20.20;34.70;;;;;;500843;237;1200;-46
2021/03/11 01:37:50;;;;;;;;;;;20.30;34.60;;;;;;500363;237;1401;-46
2021/03/11 01:39:52;;;;;;;;;;;20.40;34.60;;;;;;500607;237;1177;-46
2021/03/11 01:41:53;;;;;;;;;;;20.40;34.50;;;;;;500247;237;2128;-46
2021/03/11 01:43:54;;;;;;;;;;;20.40;34.40;;;;;;500367;237;1064;-46
2021/03/11 01:45:55;;;;;;;;;;;20.50;34.40;;;;;;500475;237;1204;-46
2021/03/11 01:47:57;;;;;;;;;;;20.50;34.30;;;;;;500303;237;1328;-46
2021/03/11 01:49:58;;;;;;;;;;;20.50;34.30;;;;;;500884;237;1041;-46
2021/03/11 01:51:59;;;;;;;;;;;20.50;34.20;;;;;;500315;237;1474;-46
2021/03/11 01:54:00;;;;;;;;;;;20.60;34.20;;;;;;500426;237;1057;-46
2021/03/11 01:56:02;;;;;;;;;;;20.60;34.20;;;;;;500841;237;1179;-46
2021/03/11 01:58:03;;;;;;;;;;;20.60;34.10;;;;;;500478;237;1064;-46
2021/03/11 02:00:04;;;;;;;;;;;20.70;34.10;;;;;;500383;237;1040;-46
2021/03/11 02:02:06;;;;;;;;;;;20.70;34.00;;;;;;500387;237;2180;-46
2021/03/11 02:04:07;;;;;;;;;;;20.70;34.00;;;;;;500589;237;1101;-46
2021/03/11 02:06:08;;;;;;;;;;;20.70;34.00;;;;;;500390;237;1309;-46
2021/03/11 02:08:09;;;;;;;;;;;20.70;33.90;;;;;;500368;237;1191;-46
2021/03/11 02:10:11;;;;;;;;;;;20.70;33.90;;;;;;500404;237;1090;-46
2021/03/11 02:12:12;;;;;;;;;;;20.80;34.00;;;;;;500467;237;1133;-46
2021/03/11 02:14:13;;;;;;;;;;;20.80;33.90;;;;;;500480;237;1064;-46
2021/03/11 02:16:14;;;;;;;;;;;20.80;33.80;;;;;;500469;237;1232;-46
2021/03/11 02:18:16;;;;;;;;;;;20.90;33.80;;;;;;500684;237;1056;-46
2021/03/11 02:20:19;;;;;;;;;;;20.90;33.80;;;;;;500462;237;1025;-46
2021/03/11 02:22:20;;;;;;;;;;;20.90;33.80;;;;;;500439;237;2199;-46
2021/03/11 02:24:21;;;;;;;;;;;20.90;33.80;;;;;;500852;237;1071;-46
2021/03/11 02:26:23;;;;;;;;;;;20.90;33.70;;;;;;500371;237;1133;-46
2021/03/11 02:28:24;;;;;;;;;;;20.90;33.70;;;;;;500391;237;1131;-46
2021/03/11 02:30:25;;;;;;;;;;;20.90;33.70;;;;;;500388;237;1458;-46
2021/03/11 02:32:26;;;;;;;;;;;20.90;33.70;;;;;;500412;237;1207;-46
2021/03/11 02:34:28;;;;;;;;;;;21.00;33.70;;;;;;500356;237;1087;-46
2021/03/11 02:36:29;;;;;;;;;;;21.00;33.70;;;;;;500238;237;1368;-46
2021/03/11 02:38:30;;;;;;;;;;;21.00;33.70;;;;;;500428;237;1159;-46
2021/03/11 02:40:31;;;;;;;;;;;21.00;33.70;;;;;;500352;237;1164;-47
2021/03/11 02:42:33;;;;;;;;;;;21.00;33.60;;;;;;500530;237;2113;-47
2021/03/11 02:44:34;;;;;;;;;;;21.00;33.60;;;;;;500663;237;1105;-46
2021/03/11 02:46:35;;;;;;;;;;;21.00;33.60;;;;;;500306;237;1456;-47
2021/03/11 02:48:36;;;;;;;;;;;21.10;33.60;;;;;;500363;237;1051;-46
2021/03/11 02:50:38;;;;;;;;;;;21.10;33.50;;;;;;500326;237;1055;-46
2021/03/11 02:52:39;;;;;;;;;;;21.10;33.60;;;;;;500341;237;1144;-46
2021/03/11 02:54:41;;;;;;;;;;;21.10;33.60;;;;;;500534;237;1060;-46
2021/03/11 02:56:42;;;;;;;;;;;21.10;33.60;;;;;;500265;237;2328;-47
2021/03/11 02:58:43;;;;;;;;;;;21.10;33.50;;;;;;500348;237;1167;-46
2021/03/11 03:00:44;;;;;;;;;;;21.10;33.50;;;;;;500424;237;1040;-46
2021/03/11 03:02:46;;;;;;;;;;;21.10;33.50;;;;;;500421;237;2149;-47
2021/03/11 03:04:47;;;;;;;;;;;21.10;33.50;;;;;;500347;237;1056;-46
2021/03/11 03:06:49;;;;;;;;;;;21.10;33.50;;;;;;500806;237;1032;-46
2021/03/11 03:08:50;;;;;;;;;;;21.20;33.50;;;;;;500413;237;1214;-47
2021/03/11 03:10:51;;;;;;;;;;;21.20;33.50;;;;;;500555;237;1037;-46
2021/03/11 03:12:53;;;;;;;;;;;21.20;33.50;;;;;;500401;237;1184;-46
2021/03/11 03:14:54;;;;;;;;;;;21.20;33.40;;;;;;500414;237;1079;-47
2021/03/11 03:16:55;;;;;;;;;;;21.20;33.40;;;;;;500554;237;1011;-46
2021/03/11 03:18:56;;;;;;;;;;;21.20;33.40;;;;;;500577;237;967;-47
2021/03/11 03:20:58;;;;;;;;;;;21.20;33.40;;;;;;500352;237;1060;-47
2021/03/11 03:22:59;;;;;;;;;;;21.20;33.40;;;;;;500378;237;2163;-47
2021/03/11 03:25:00;;;;;;;;;;;21.20;33.50;;;;;;500388;237;1027;-47
2021/03/11 03:27:02;;;;;;;;;;;21.20;33.40;;;;;;500428;237;1058;-46
2021/03/11 03:29:03;;;;;;;;;;;21.20;33.40;;;;;;500505;237;1045;-47
2021/03/11 03:31:04;;;;;;;;;;;21.20;33.40;;;;;;500725;237;1007;-46
2021/03/11 03:33:06;;;;;;;;;;;21.20;33.40;;;;;;500488;237;1090;-46
2021/03/11 03:35:07;;;;;;;;;;;21.20;33.40;;;;;;500404;237;1975;-46
2021/03/11 03:37:08;;;;;;;;;;;21.20;33.40;;;;;;500299;237;1088;-47
2021/03/11 03:39:09;;;;;;;;;;;21.30;33.40;;;;;;500465;237;1188;-46
2021/03/11 03:41:10;;;;;;;;;;;21.30;33.40;;;;;;500635;237;1200;-46
2021/03/11 03:43:12;;;;;;;;;;;21.30;33.40;;;;;;500361;237;2145;-47
2021/03/11 03:45:13;;;;;;;;;;;21.30;33.30;;;;;;500277;237;1059;-46
2021/03/11 03:47:14;;;;;;;;;;;21.30;33.40;;;;;;500311;237;1030;-47
2021/03/11 03:49:16;;;;;;;;;;;21.30;33.30;;;;;;500581;237;1070;-46
2021/03/11 03:51:17;;;;;;;;;;;21.30;33.40;;;;;;500513;237;1039;-46
2021/03/11 03:53:18;;;;;;;;;;;21.30;33.40;;;;;;500432;237;1140;-47
2021/03/11 03:55:19;;;;;;;;;;;21.30;33.40;;;;;;500337;237;1208;-46
2021/03/11 03:57:21;;;;;;;;;;;21.30;33.40;;;;;;500281;237;1100;-46
2021/03/11 03:59:22;;;;;;;;;;;21.30;33.30;;;;;;500354;237;1145;-47
2021/03/11 04:01:23;;;;;;;;;;;21.30;33.30;;;;;;500246;237;1148;-46
2021/03/11 04:03:25;;;;;;;;;;;21.30;33.30;;;;;;500368;237;2132;-46
2021/03/11 04:05:26;;;;;;;;;;;21.30;33.30;;;;;;500669;237;1174;-47
2021/03/11 04:07:27;;;;;;;;;;;21.40;33.30;;;;;;500489;237;1226;-46
2021/03/11 04:09:28;;;;;;;;;;;21.40;33.30;;;;;;500348;237;1131;-46
2021/03/11 04:11:30;;;;;;;;;;;21.40;33.30;;;;;;500733;237;1345;-46
2021/03/11 04:13:31;;;;;;;;;;;21.40;33.30;;;;;;500553;237;1194;-46
2021/03/11 04:15:32;;;;;;;;;;;21.30;33.30;;;;;;500487;237;1025;-46
2021/03/11 04:17:33;;;;;;;;;;;21.40;33.30;;;;;;500297;237;1152;-46
2021/03/11 04:19:35;;;;;;;;;;;21.30;33.20;;;;;;500421;237;1158;-46
2021/03/11 04:21:36;;;;;;;;;;;21.40;33.30;;;;;;500605;237;1101;-47
2021/03/11 04:23:37;;;;;;;;;;;21.40;33.30;;;;;;500599;237;2129;-47
2021/03/11 04:25:39;;;;;;;;;;;21.40;33.30;;;;;;500601;237;1030;-47
2021/03/11 04:27:40;;;;;;;;;;;21.40;33.30;;;;;;500513;237;1075;-47
2021/03/11 04:29:41;;;;;;;;;;;21.40;33.20;;;;;;500462;237;1163;-47
2021/03/11 04:31:42;;;;;;;;;;;21.40;33.20;;;;;;500359;237;1078;-46
2021/03/11 04:33:44;;;;;;;;;;;21.40;33.20;;;;;;500692;237;1097;-47
2021/03/11 04:35:45;;;;;;;;;;;21.40;33.20;;;;;;500355;237;1065;-47
2021/03/11 04:37:46;;;;;;;;;;;21.40;33.20;;;;;;500437;237;1094;-47
2021/03/11 04:39:48;;;;;;;;;;;21.40;33.20;;;;;;500443;237;1162;-46
2021/03/11 04:41:49;;;;;;;;;;;21.40;33.20;;;;;;500516;237;1017;-46
2021/03/11 04:43:50;;;;;;;;;;;21.40;33.20;;;;;;500511;237;2133;-47
2021/03/11 04:45:51;;;;;;;;;;;21.50;33.30;;;;;;500445;237;1082;-46
2021/03/11 04:47:53;;;;;;;;;;;21.50;33.20;;;;;;500408;237;1157;-47
2021/03/11 04:49:54;;;;;;;;;;;21.50;33.20;;;;;;500393;237;1112;-47
2021/03/11 04:51:55;;;;;;;;;;;21.50;33.20;;;;;;500295;237;1170;-46
2021/03/11 04:53:57;;;;;;;;;;;21.50;33.10;;;;;;500336;237;1167;-46
2021/03/11 04:55:58;;;;;;;;;;;21.50;33.20;;;;;;500493;237;1450;-46
2021/03/11 04:57:59;;;;;;;;;;;21.50;33.20;;;;;;500412;237;1074;-46
2021/03/11 05:00:01;;;;;;;;;;;21.50;33.20;;;;;;500605;237;1015;-46
2021/03/11 05:02:02;;;;;;;;;;;21.50;33.20;;;;;;500372;237;2417;-46
2021/03/11 05:04:03;;;;;;;;;;;21.50;33.20;;;;;;500669;237;2121;-46
2021/03/11 05:06:04;;;;;;;;;;;21.50;33.20;;;;;;500375;237;1140;-46
2021/03/11 05:08:06;;;;;;;;;;;21.50;33.20;;;;;;500447;237;1067;-47
2021/03/11 05:10:07;;;;;;;;;;;21.50;33.20;;;;;;500511;237;1179;-47
2021/03/11 05:12:08;;;;;;;;;;;21.50;33.20;;;;;;500393;237;1174;-46
2021/03/11 05:14:09;;;;;;;;;;;21.50;33.10;;;;;;500314;237;1248;-46
2021/03/11 05:16:11;;;;;;;;;;;21.50;33.10;;;;;;500305;237;1398;-46
2021/03/11 05:18:12;;;;;;;;;;;21.50;33.10;;;;;;500169;237;1081;-47
2021/03/11 05:20:13;;;;;;;;;;;21.60;33.20;;;;;;500273;237;1047;-46
2021/03/11 05:22:15;;;;;;;;;;;21.60;33.10;;;;;;500303;237;1112;-47
2021/03/11 05:24:16;;;;;;;;;;;21.60;33.20;;;;;;500301;237;2192;-46
2021/03/11 05:26:17;;;;;;;;;;;21.60;33.10;;;;;;500423;237;955;-47
2021/03/11 05:28:18;;;;;;;;;;;21.60;33.20;;;;;;500375;237;1070;-47
2021/03/11 05:30:20;;;;;;;;;;;21.60;33.20;;;;;;500566;237;1066;-46
2021/03/11 05:32:21;;;;;;;;;;;21.60;33.20;;;;;;500436;237;1054;-46
2021/03/11 05:34:22;;;;;;;;;;;21.60;33.10;;;;;;500262;237;1064;-46
2021/03/11 05:36:24;;;;;;;;;;;21.60;33.10;;;;;;500318;237;1038;-46
2021/03/11 05:38:25;;;;;;;;;;;21.60;33.10;;;;;;500306;237;1072;-46
2021/03/11 05:40:26;;;;;;;;;;;21.60;33.10;;;;;;500389;237;1168;-47
2021/03/11 05:42:27;;;;;;;;;;;21.60;33.10;;;;;;500192;237;1093;-47
2021/03/11 05:44:29;;;;;;;;;;;21.60;33.10;;;;;;500193;237;2192;-47
2021/03/11 05:46:30;;;;;;;;;;;21.60;33.10;;;;;;500153;237;1238;-47
2021/03/11 05:48:31;;;;;;;;;;;21.60;33.10;;;;;;500218;237;1188;-47
2021/03/11 05:50:33;;;;;;;;;;;21.60;33.10;;;;;;500284;237;1142;-47
2021/03/11 05:52:34;;;;;;;;;;;21.60;33.10;;;;;;500362;237;1070;-46
2021/03/11 05:54:35;;;;;;;;;;;21.60;33.20;;;;;;500262;237;1199;-46
2021/03/11 05:56:37;;;;;;;;;;;21.60;33.10;;;;;;500232;237;1100;-47
2021/03/11 05:58:38;;;;;;;;;;;21.60;33.10;;;;;;500013;237;1096;-46
2021/03/11 06:00:39;;;;;;;;;;;21.60;33.10;;;;;;500359;237;1124;-47
2021/03/11 06:02:41;;;;;;;;;;;21.60;33.10;;;;;;500392;237;1100;-46
2021/03/11 06:04:42;;;;;;;;;;;21.60;33.10;;;;;;500281;237;2124;-46
2021/03/11 06:06:43;;;;;;;;;;;21.60;33.10;;;;;;500238;237;1049;-47
2021/03/11 06:08:44;;;;;;;;;;;21.60;33.10;;;;;;500207;237;1068;-47
2021/03/11 06:10:46;;;;;;;;;;;21.70;33.10;;;;;;500210;237;1139;-46
2021/03/11 06:12:47;;;;;;;;;;;21.70;33.10;;;;;;500133;237;1046;-46
2021/03/11 06:14:48;;;;;;;;;;;21.70;33.20;;;;;;500120;237;1240;-46
2021/03/11 06:16:49;;;;;;;;;;;21.70;33.10;;;;;;500184;237;1125;-47
2021/03/11 06:18:51;;;;;;;;;;;21.70;33.10;;;;;;500180;237;1168;-46
2021/03/11 06:20:52;;;;;;;;;;;21.70;33.10;;;;;;500004;237;1104;-46
2021/03/11 06:22:54;;;;;;;;;;;21.70;33.10;;;;;;500121;237;1145;-47
2021/03/11 06:24:55;;;;;;;;;;;21.70;33.10;;;;;;500180;237;2137;-46
2021/03/11 06:26:56;;;;;;;;;;;21.70;33.10;;;;;;500217;237;1241;-47
2021/03/11 06:28:57;;;;;;;;;;;21.70;33.10;;;;;;499934;237;1072;-47
2021/03/11 06:30:59;;;;;;;;;;;21.70;33.10;;;;;;499908;237;1101;-46
2021/03/11 06:33:00;;;;;;;;;;;21.70;33.10;;;;;;499992;237;1095;-46
2021/03/11 06:35:01;;;;;;;;;;;21.70;33.10;;;;;;500075;237;1045;-46
2021/03/11 06:37:02;;;;;;;;;;;21.70;33.10;;;;;;500062;237;1234;-46
2021/03/11 06:39:04;;;;;;;;;;;21.70;33.10;;;;;;500089;237;1051;-46
2021/03/11 06:41:05;;;;;;;;;;;21.70;33.00;;;;;;500128;237;1288;-46
2021/03/11 06:43:07;;;;;;;;;;;21.70;33.00;;;;;;500062;237;1124;-46
2021/03/11 06:45:08;;;;;;;;;;;21.70;33.10;;;;;;499923;237;2145;-46
2021/03/11 06:47:09;;;;;;;;;;;21.70;33.10;;;;;;499912;237;1122;-47
2021/03/11 06:49:11;;;;;;;;;;;21.70;33.10;;;;;;500064;237;1072;-47
2021/03/11 06:51:12;;;;;;;;;;;21.70;33.10;;;;;;500020;237;1176;-46
2021/03/11 06:53:13;;;;;;;;;;;21.70;33.10;;;;;;500057;237;1129;-47
2021/03/11 06:55:15;;;;;;;;;;;21.70;33.10;;;;;;499814;237;1351;-46
2021/03/11 06:57:16;;;;;;;;;;;21.70;33.10;;;;;;499857;237;1141;-46
2021/03/11 06:59:17;;;;;;;;;;;21.70;33.10;;;;;;499968;237;1134;-47
2021/03/11 07:01:18;;;;;;;;;;;21.70;33.10;;;;;;499906;237;1195;-46
2021/03/11 07:03:20;;;;;;;;;;;21.70;33.10;;;;;;499957;237;1089;-47
2021/03/11 07:05:21;;;;;;;;;;;21.70;33.00;;;;;;500047;237;2184;-47
2021/03/11 07:07:22;;;;;;;;;;;21.70;33.00;;;;;;500050;237;1224;-46
2021/03/11 07:09:24;;;;;;;;;;;21.70;33.00;;;;;;499903;237;1061;-46
2021/03/11 07:11:25;;;;;;;;;;;21.70;33.10;;;;;;499651;237;1269;-46
2021/03/11 07:13:26;;;;;;;;;;;21.70;33.00;;;;;;499723;237;1059;-47
2021/03/11 07:15:27;;;;;;;;;;;21.70;33.10;;;;;;499722;237;1351;-46
2021/03/11 07:17:29;;;;;;;;;;;21.70;33.10;;;;;;499753;237;1094;-46
2021/03/11 07:19:30;;;;;;;;;;;21.70;33.10;;;;;;499653;237;1329;-47
2021/03/11 07:21:31;;;;;;;;;;;21.70;33.10;;;;;;499558;237;1184;-46
2021/03/11 07:23:33;;;;;;;;;;;21.70;33.10;;;;;;499841;237;1048;-47
2021/03/11 07:25:34;;;;;;;;;;;21.70;33.10;;;;;;499773;237;2183;-47
2021/03/11 07:27:35;;;;;;;;;;;21.70;33.10;;;;;;499793;237;1207;-47
2021/03/11 07:29:36;;;;;;;;;;;21.70;33.10;;;;;;499815;237;1461;-47
2021/03/11 07:31:38;;;;;;;;;;;21.70;33.10;;;;;;499769;237;1282;-47
2021/03/11 07:33:39;;;;;;;;;;;21.70;33.10;;;;;;499969;237;1093;-47
2021/03/11 07:35:40;;;;;;;;;;;21.70;33.10;;;;;;499677;237;1072;-46
2021/03/11 07:37:41;;;;;;;;;;;21.70;33.10;;;;;;499492;237;1233;-46
2021/03/11 07:39:43;;;;;;;;;;;21.70;33.10;;;;;;499592;237;1131;-46
2021/03/11 07:41:44;;;;;;;;;;;21.70;33.10;;;;;;499634;237;1335;-47
2021/03/11 07:43:45;;;;;;;;;;;21.70;33.10;;;;;;499901;237;1355;-47
2021/03/11 07:45:47;;;;;;;;;;;21.80;33.10;;;;;;499577;237;2124;-46
2021/03/11 07:47:48;;;;;;;;;;;21.80;33.10;;;;;;499724;237;1215;-47
2021/03/11 07:49:49;;;;;;;;;;;21.80;33.10;;;;;;499691;237;1186;-47
2021/03/11 07:51:50;;;;;;;;;;;21.80;33.00;;;;;;499685;237;1126;-47
2021/03/11 07:53:52;;;;;;;;;;;21.80;33.10;;;;;;499706;237;1130;-47
2021/03/11 07:55:53;;;;;;;;;;;21.80;33.10;;;;;;499639;237;1240;-46
2021/03/11 07:57:54;;;;;;;;;;;21.80;33.10;;;;;;499608;237;1152;-47
2021/03/11 07:59:56;;;;;;;;;;;21.80;33.10;;;;;;499670;237;1057;-47
2021/03/11 08:01:57;;;;;;;;;;;21.70;33.10;;;;;;499451;237;1121;-47
2021/03/11 08:03:58;;;;;;;;;;;21.80;33.10;;;;;;499704;237;2187;-46
2021/03/11 08:05:59;;;;;;;;;;;21.80;33.10;;;;;;499582;237;1297;-46
2021/03/11 08:08:01;;;;;;;;;;;21.80;33.10;;;;;;499639;237;1277;-47
2021/03/11 08:10:02;;;;;;;;;;;21.80;33.00;;;;;;499552;237;1118;-46
2021/03/11 08:12:03;;;;;;;;;;;21.80;33.00;;;;;;499606;237;1274;-46
2021/03/11 08:14:05;;;;;;;;;;;21.80;33.00;;;;;;499508;237;1310;-46
2021/03/11 08:16:06;;;;;;;;;;;21.80;33.10;;;;;;499405;237;1381;-46
2021/03/11 08:18:07;;;;;;;;;;;21.80;33.00;;;;;;499625;237;1070;-47
2021/03/11 08:20:09;;;;;;;;;;;21.80;33.10;;;;;;499649;237;1067;-47
2021/03/11 08:22:10;;;;;;;;;;;21.80;33.10;;;;;;499605;237;1228;-47
2021/03/11 08:24:11;;;;;;;;;;;21.80;33.10;;;;;;499605;237;2195;-46
2021/03/11 08:26:13;;;;;;;;;;;21.80;33.00;;;;;;499525;237;1254;-46
2021/03/11 08:28:14;;;;;;;;;;;21.80;33.00;;;;;;499555;237;1260;-47
2021/03/11 08:30:15;;;;;;;;;;;21.80;33.10;;;;;;499535;237;1121;-46
2021/03/11 08:32:17;;;;;;;;;;;21.80;33.00;;;;;;499565;237;1310;-47
2021/03/11 08:34:18;;;;;;;;;;;21.80;33.00;;;;;;499388;237;1114;-46
2021/03/11 08:36:19;;;;;;;;;;;21.80;33.00;;;;;;499297;237;1332;-47
2021/03/11 08:38:21;;;;;;;;;;;21.80;33.00;;;;;;499539;237;1149;-47
2021/03/11 08:40:22;;;;;;;;;;;21.80;33.00;;;;;;499513;237;1270;-46
2021/03/11 08:42:23;;;;;;;;;;;21.80;33.00;;;;;;499521;237;1219;-47
2021/03/11 08:44:24;;;;;;;;;;;21.80;33.00;;;;;;499700;237;2199;-47
2021/03/11 08:46:26;;;;;;;;;;;21.40;33.70;;;;;;499630;237;1090;-46
2021/03/11 08:48:27;;;;;;;;;;;20.90;34.60;;;;;;499640;237;1112;-47
2021/03/11 08:50:28;;;;;;;;;;;20.50;35.30;;;;;;499716;237;1236;-46
2021/03/11 08:52:30;;;;;;;;;;;20.30;35.80;;;;;;499603;237;1280;-46
2021/03/11 08:54:31;;;;;;;;;;;20.10;36.10;;;;;;499538;237;1388;-46
2021/03/11 08:56:32;;;;;;;;;;;19.90;36.40;;;;;;499553;237;1219;-46
2021/03/11 08:58:33;;;;;;;;;;;19.80;36.70;;;;;;499567;237;1139;-46
2021/03/11 09:00:35;;;;;;;;;;;19.70;36.90;;;;;;499450;237;1202;-46
2021/03/11 09:02:36;;;;;;;;;;;19.50;37.00;;;;;;499511;237;1170;-46
2021/03/11 09:04:40;;;;;;;;;;;19.50;37.10;;;;;;499662;237;2191;-46
2021/03/11 09:06:39;;;;;;;;;;;19.40;37.20;;;;;;499674;237;2315;-46
2021/03/11 09:08:41;;;;;;;;;;;19.40;37.40;;;;;;499777;237;1148;-46
2021/03/11 09:10:42;;;;;;;;;;;19.40;37.30;;;;;;499638;237;1068;-46
2021/03/11 09:12:43;;;;;;;;;;;19.30;37.40;;;;;;499697;237;1631;-46
2021/03/11 09:14:44;;;;;;;;;;;19.30;37.50;;;;;;499661;237;1093;-46
2021/03/11 09:16:46;;;;;;;;;;;19.30;37.50;;;;;;499620;237;1187;-46
2021/03/11 09:18:47;;;;;;;;;;;19.20;37.60;;;;;;499710;237;1231;-46
2021/03/11 09:20:49;;;;;;;;;;;19.20;37.60;;;;;;499503;237;1598;-46
2021/03/11 09:22:50;;;;;;;;;;;19.20;37.60;;;;;;499852;237;1216;-46
2021/03/11 09:24:51;;;;;;;;;;;19.10;37.70;;;;;;499575;237;2191;-46
2021/03/11 09:26:52;;;;;;;;;;;19.10;37.80;;;;;;499681;237;1578;-46
2021/03/11 09:28:54;;;;;;;;;;;19.10;37.80;;;;;;499810;237;1199;-46
2021/03/11 09:30:55;;;;;;;;;;;19.10;37.80;;;;;;499476;237;1424;-46
2021/03/11 09:32:56;;;;;;;;;;;19.10;37.70;;;;;;499664;237;1163;-46
2021/03/11 09:34:58;;;;;;;;;;;19.00;37.80;;;;;;499670;237;1056;-46
2021/03/11 09:36:59;;;;;;;;;;;19.00;37.90;;;;;;499676;237;1170;-46
2021/03/11 09:39:00;;;;;;;;;;;19.00;37.90;;;;;;499646;237;1217;-46
2021/03/11 09:41:03;;;;;;;;;;;19.00;37.80;;;;;;499704;237;1091;-46
2021/03/11 09:43:03;;;;;;;;;;;19.00;37.80;;;;;;499701;237;1436;-46
2021/03/11 09:45:04;;;;;;;;;;;18.90;37.90;;;;;;499628;237;2203;-46
2021/03/11 09:47:05;;;;;;;;;;;18.90;37.90;;;;;;499481;237;1265;-46
2021/03/11 09:49:07;;;;;;;;;;;18.90;37.90;;;;;;499554;237;1130;-46
2021/03/11 09:51:08;;;;;;;;;;;18.90;38.00;;;;;;499568;237;1197;-46
2021/03/11 09:53:10;;;;;;;;;;;18.80;38.00;;;;;;499627;237;1144;-46
2021/03/11 09:55:11;;;;;;;;;;;18.80;38.10;;;;;;499531;237;1115;-46
2021/03/11 09:57:12;;;;;;;;;;;18.80;38.10;;;;;;499471;237;1203;-46
2021/03/11 09:59:14;;;;;;;;;;;18.80;38.20;;;;;;499563;237;1084;-46
2021/03/11 10:01:15;;;;;;;;;;;18.80;38.10;;;;;;499388;237;1984;-46
2021/03/11 10:03:17;;;;;;;;;;;18.80;38.10;;;;;;499595;237;1233;-46
2021/03/11 10:05:18;;;;;;;;;;;18.70;38.10;;;;;;499636;237;2176;-46
2021/03/11 10:07:20;;;;;;;;;;;18.70;38.20;;;;;;499537;237;1104;-46
2021/03/11 10:09:21;;;;;;;;;;;18.70;38.20;;;;;;499444;237;1320;-46
2021/03/11 10:11:23;;;;;;;;;;;18.60;38.20;;;;;;499558;237;1212;-46
2021/03/11 10:13:23;;;;;;;;;;;18.60;38.40;;;;;;499567;237;1821;-46
2021/03/11 10:15:25;;;;;;;;;;;18.50;38.50;;;;;;499792;237;1235;-46
2021/03/11 10:17:26;;;;;;;;;;;18.40;38.60;;;;;;499603;237;1255;-46
2021/03/11 10:19:27;;;;;;;;;;;18.40;38.70;;;;;;499617;237;1201;-46
2021/03/11 10:21:28;;;;;;;;;;;18.30;38.70;;;;;;499654;237;1318;-46
2021/03/11 10:23:30;;;;;;;;;;;18.30;38.70;;;;;;499937;237;1136;-46
2021/03/11 10:25:31;;;;;;;;;;;18.30;38.80;;;;;;499491;237;2199;-46
2021/03/11 10:27:32;;;;;;;;;;;18.30;38.80;;;;;;499500;237;1235;-46
2021/03/11 10:29:34;;;;;;;;;;;18.30;38.90;;;;;;499505;237;1285;-46
2021/03/11 10:31:35;;;;;;;;;;;18.20;38.90;;;;;;499371;237;1320;-46
2021/03/11 10:33:38;;;;;;;;;;;18.20;38.90;;;;;;499499;237;1114;-46
2021/03/11 10:35:38;;;;;;;;;;;18.20;38.90;;;;;;500058;237;2158;-46
2021/03/11 10:37:39;;;;;;;;;;;18.20;38.90;;;;;;500365;237;1146;-46
2021/03/11 10:39:40;;;;;;;;;;;18.20;38.90;;;;;;499734;237;1085;-46
2021/03/11 10:41:42;;;;;;;;;;;18.20;38.90;;;;;;499304;237;1318;-46
2021/03/11 10:43:43;;;;;;;;;;;18.20;38.90;;;;;;499467;237;1287;-46
2021/03/11 10:45:45;;;;;;;;;;;18.20;38.90;;;;;;499433;237;2206;-46
2021/03/11 10:47:46;;;;;;;;;;;18.10;38.90;;;;;;499384;237;1131;-46
2021/03/11 10:49:47;;;;;;;;;;;18.10;39.00;;;;;;499495;237;1048;-46
2021/03/11 10:51:48;;;;;;;;;;;18.10;39.00;;;;;;499421;237;1258;-45
2021/03/11 10:53:50;;;;;;;;;;;18.10;39.00;;;;;;499481;238;1451;-46
2021/03/11 10:55:53;;;;;;;;;;;18.10;39.00;;;;;;499550;237;1296;-46
2021/03/11 10:57:52;;;;;;;;;;;18.10;39.00;;;;;;499542;237;2485;-46
2021/03/11 10:59:54;;;;;;;;;;;18.10;39.00;;;;;;499592;237;1148;-46
2021/03/11 11:01:55;;;;;;;;;;;18.10;39.00;;;;;;499484;237;1174;-46
2021/03/11 11:03:56;;;;;;;;;;;18.00;39.00;;;;;;499619;237;1189;-46
2021/03/11 11:05:57;;;;;;;;;;;18.00;39.10;;;;;;499586;237;2199;-46
2021/03/11 11:07:59;;;;;;;;;;;18.00;39.10;;;;;;500228;237;1155;-46
2021/03/11 11:10:00;;;;;;;;;;;18.00;39.10;;;;;;499607;237;1160;-46
2021/03/11 11:12:02;;;;;;;;;;;18.00;39.00;;;;;;499337;237;1317;-46
2021/03/11 11:14:03;;;;;;;;;;;18.00;39.00;;;;;;499492;237;1196;-46
2021/03/11 11:16:05;;;;;;;;;;;18.10;38.90;;;;;;499553;237;1277;-46
2021/03/11 11:18:06;;;;;;;;;;;18.10;38.90;;;;;;499316;237;1176;-46
2021/03/11 11:20:07;;;;;;;;;;;18.10;38.80;;;;;;499203;237;1259;-46
2021/03/11 11:22:09;;;;;;;;;;;18.10;38.80;;;;;;499233;237;1232;-46
2021/03/11 11:24:10;;;;;;;;;;;18.30;38.50;;;;;;499525;237;1196;-46
2021/03/11 11:26:11;;;;;;;;;;;18.70;37.80;;;;;;499533;237;2192;-46
2021/03/11 11:28:13;;;;;;;;;;;19.00;37.00;;;;;;499577;237;1371;-46
2021/03/11 11:30:14;;;;;;;;;;;19.30;36.40;;;;;;499417;237;1276;-47
2021/03/11 11:32:16;;;;;;;;;;;19.50;36.00;;;;;;499302;237;1111;-46
2021/03/11 11:34:19;;;;;;;;;;;19.60;35.70;;;;;;499599;237;1118;-46
2021/03/11 11:36:18;;;;;;;;;;;19.80;35.60;;;;;;499526;237;1991;-46
2021/03/11 11:38:19;;;;;;;;;;;19.80;35.40;;;;;;499572;237;1149;-46
2021/03/11 11:40:21;;;;;;;;;;;19.90;35.20;;;;;;499557;237;1076;-47
2021/03/11 11:42:22;;;;;;;;;;;20.00;35.20;;;;;;499577;237;1075;-47
2021/03/11 11:44:24;;;;;;;;;;;20.00;35.00;;;;;;499429;237;1169;-46
2021/03/11 11:46:25;;;;;;;;;;;20.10;34.90;;;;;;499268;237;2188;-46
2021/03/11 11:48:26;;;;;;;;;;;20.10;34.90;;;;;;499499;237;1101;-46
2021/03/11 11:50:27;;;;;;;;;;;20.20;34.80;;;;;;499604;237;1223;-46
2021/03/11 11:52:29;;;;;;;;;;;20.20;34.80;;;;;;499712;237;1099;-46
2021/03/11 11:54:30;;;;;;;;;;;20.20;34.70;;;;;;499497;237;1122;-46
2021/03/11 11:56:32;;;;;;;;;;;20.20;34.60;;;;;;499581;237;1137;-46